sensor_id;sensor_type;location;lat;lon;timestamp;P1;durP1;ratioP1;P2;durP2;ratioP2
70707;SDS011;58277;47.316;18.908;2022-11-24T00:01:23;32.00;;;13.68;;
70707;SDS011;58277;47.316;18.908;2022-11-24T00:03:52;35.10;;;14.65;;
70707;SDS011;58277;47.316;18.908;2022-11-24T00:06:16;34.17;;;14.43;;
70707;SDS011;58277;47.316;18.908;2022-11-24T00:08:39;38.65;;;15.32;;
70707;SDS011;58277;47.316;18.908;2022-11-24T00:11:04;41.43;;;15.83;;
70707;SDS011;58277;47.316;18.908;2022-11-24T00:13:32;42.85;;;15.88;;
70707;SDS011;58277;47.316;18.908;2022-11-24T00:16:02;41.92;;;16.60;;
70707;SDS011;58277;47.316;18.908;2022-11-24T00:18:26;40.00;;;16.20;;
70707;SDS011;58277;47.316;18.908;2022-11-24T00:20:52;45.53;;;17.70;;
70707;SDS011;58277;47.316;18.908;2022-11-24T00:23:14;45.30;;;17.17;;
70707;SDS011;58277;47.316;18.908;2022-11-24T00:25:37;42.95;;;17.02;;
70707;SDS011;58277;47.316;18.908;2022-11-24T00:28:00;41.45;;;16.85;;
70707;SDS011;58277;47.316;18.908;2022-11-24T00:30:23;39.40;;;15.93;;
70707;SDS011;58277;47.316;18.908;2022-11-24T00:32:45;41.33;;;16.85;;
70707;SDS011;58277;47.316;18.908;2022-11-24T00:35:08;47.07;;;17.67;;
70707;SDS011;58277;47.316;18.908;2022-11-24T00:37:31;44.60;;;17.90;;
70707;SDS011;58277;47.316;18.908;2022-11-24T00:39:54;48.55;;;18.17;;
70707;SDS011;58277;47.316;18.908;2022-11-24T00:42:17;41.63;;;17.80;;
70707;SDS011;58277;47.316;18.908;2022-11-24T00:44:39;44.97;;;18.35;;
70707;SDS011;58277;47.316;18.908;2022-11-24T00:47:02;47.27;;;18.47;;
70707;SDS011;58277;47.316;18.908;2022-11-24T00:49:25;47.03;;;17.85;;
70707;SDS011;58277;47.316;18.908;2022-11-24T00:51:48;51.08;;;18.35;;
70707;SDS011;58277;47.316;18.908;2022-11-24T00:54:11;46.70;;;17.42;;
70707;SDS011;58277;47.316;18.908;2022-11-24T00:56:33;47.47;;;17.83;;
70707;SDS011;58277;47.316;18.908;2022-11-24T00:58:56;45.07;;;17.90;;
70707;SDS011;58277;47.316;18.908;2022-11-24T01:01:20;46.60;;;17.77;;
70707;SDS011;58277;47.316;18.908;2022-11-24T01:03:45;47.30;;;17.92;;
70707;SDS011;58277;47.316;18.908;2022-11-24T01:06:10;47.47;;;18.77;;
70707;SDS011;58277;47.316;18.908;2022-11-24T01:08:37;50.75;;;18.35;;
70707;SDS011;58277;47.316;18.908;2022-11-24T01:11:14;49.80;;;17.40;;
70707;SDS011;58277;47.316;18.908;2022-11-24T01:13:44;50.05;;;17.40;;
70707;SDS011;58277;47.316;18.908;2022-11-24T01:16:15;50.42;;;18.40;;
70707;SDS011;58277;47.316;18.908;2022-11-24T01:18:44;50.33;;;18.63;;
70707;SDS011;58277;47.316;18.908;2022-11-24T01:21:06;48.13;;;18.25;;
70707;SDS011;58277;47.316;18.908;2022-11-24T01:23:31;49.93;;;18.23;;
70707;SDS011;58277;47.316;18.908;2022-11-24T01:25:54;49.13;;;18.15;;
70707;SDS011;58277;47.316;18.908;2022-11-24T01:28:17;49.78;;;18.35;;
70707;SDS011;58277;47.316;18.908;2022-11-24T01:30:39;53.50;;;19.08;;
70707;SDS011;58277;47.316;18.908;2022-11-24T01:33:02;51.35;;;18.67;;
70707;SDS011;58277;47.316;18.908;2022-11-24T01:35:25;52.13;;;19.20;;
70707;SDS011;58277;47.316;18.908;2022-11-24T01:37:47;53.50;;;18.92;;
70707;SDS011;58277;47.316;18.908;2022-11-24T01:40:11;55.35;;;19.35;;
70707;SDS011;58277;47.316;18.908;2022-11-24T01:42:50;52.92;;;19.25;;
70707;SDS011;58277;47.316;18.908;2022-11-24T01:45:27;50.40;;;18.25;;
70707;SDS011;58277;47.316;18.908;2022-11-24T01:47:57;53.47;;;18.07;;
70707;SDS011;58277;47.316;18.908;2022-11-24T01:50:21;51.67;;;18.58;;
70707;SDS011;58277;47.316;18.908;2022-11-24T01:52:48;48.80;;;17.50;;
70707;SDS011;58277;47.316;18.908;2022-11-24T01:55:16;51.75;;;18.45;;
70707;SDS011;58277;47.316;18.908;2022-11-24T01:57:46;54.60;;;18.83;;
70707;SDS011;58277;47.316;18.908;2022-11-24T02:00:14;49.97;;;17.87;;
70707;SDS011;58277;47.316;18.908;2022-11-24T02:02:38;51.85;;;18.50;;
70707;SDS011;58277;47.316;18.908;2022-11-24T02:05:07;50.78;;;18.05;;
70707;SDS011;58277;47.316;18.908;2022-11-24T02:07:34;50.03;;;18.25;;
70707;SDS011;58277;47.316;18.908;2022-11-24T02:09:59;53.85;;;18.77;;
70707;SDS011;58277;47.316;18.908;2022-11-24T02:12:24;49.60;;;17.80;;
70707;SDS011;58277;47.316;18.908;2022-11-24T02:14:48;47.92;;;17.27;;
70707;SDS011;58277;47.316;18.908;2022-11-24T02:17:12;52.90;;;18.70;;
70707;SDS011;58277;47.316;18.908;2022-11-24T02:19:54;52.45;;;18.42;;
70707;SDS011;58277;47.316;18.908;2022-11-24T02:27:09;49.30;;;17.58;;
70707;SDS011;58277;47.316;18.908;2022-11-24T02:29:33;47.63;;;18.77;;
70707;SDS011;58277;47.316;18.908;2022-11-24T02:31:57;50.97;;;18.33;;
70707;SDS011;58277;47.316;18.908;2022-11-24T02:34:22;50.47;;;17.85;;
70707;SDS011;58277;47.316;18.908;2022-11-24T02:36:44;51.03;;;18.97;;
70707;SDS011;58277;47.316;18.908;2022-11-24T02:39:14;49.90;;;19.08;;
70707;SDS011;58277;47.316;18.908;2022-11-24T02:41:38;53.45;;;19.58;;
70707;SDS011;58277;47.316;18.908;2022-11-24T02:44:04;54.13;;;18.70;;
70707;SDS011;58277;47.316;18.908;2022-11-24T02:49:10;48.70;;;19.00;;
70707;SDS011;58277;47.316;18.908;2022-11-24T02:51:53;52.08;;;18.80;;
70707;SDS011;58277;47.316;18.908;2022-11-24T02:54:15;51.60;;;19.25;;
70707;SDS011;58277;47.316;18.908;2022-11-24T02:56:38;54.72;;;20.10;;
70707;SDS011;58277;47.316;18.908;2022-11-24T02:59:00;51.72;;;19.08;;
70707;SDS011;58277;47.316;18.908;2022-11-24T03:01:23;56.50;;;20.73;;
70707;SDS011;58277;47.316;18.908;2022-11-24T03:03:46;54.70;;;20.45;;
70707;SDS011;58277;47.316;18.908;2022-11-24T03:06:08;58.20;;;20.40;;
70707;SDS011;58277;47.316;18.908;2022-11-24T03:08:31;57.97;;;20.27;;
70707;SDS011;58277;47.316;18.908;2022-11-24T03:10:53;57.17;;;20.83;;
70707;SDS011;58277;47.316;18.908;2022-11-24T03:13:16;54.97;;;20.17;;
70707;SDS011;58277;47.316;18.908;2022-11-24T03:15:39;61.90;;;21.55;;
70707;SDS011;58277;47.316;18.908;2022-11-24T03:18:02;60.22;;;20.75;;
70707;SDS011;58277;47.316;18.908;2022-11-24T03:20:26;57.10;;;20.45;;
70707;SDS011;58277;47.316;18.908;2022-11-24T03:22:49;56.85;;;21.05;;
70707;SDS011;58277;47.316;18.908;2022-11-24T03:25:12;58.27;;;20.47;;
70707;SDS011;58277;47.316;18.908;2022-11-24T03:27:34;59.92;;;21.35;;
70707;SDS011;58277;47.316;18.908;2022-11-24T03:29:57;62.60;;;21.73;;
70707;SDS011;58277;47.316;18.908;2022-11-24T03:32:20;65.38;;;21.88;;
70707;SDS011;58277;47.316;18.908;2022-11-24T03:34:43;55.47;;;19.70;;
70707;SDS011;58277;47.316;18.908;2022-11-24T03:37:05;57.40;;;20.97;;
70707;SDS011;58277;47.316;18.908;2022-11-24T03:39:29;56.78;;;20.60;;
70707;SDS011;58277;47.316;18.908;2022-11-24T03:41:51;55.65;;;20.85;;
70707;SDS011;58277;47.316;18.908;2022-11-24T03:44:14;56.80;;;20.73;;
70707;SDS011;58277;47.316;18.908;2022-11-24T03:46:37;57.88;;;20.77;;
70707;SDS011;58277;47.316;18.908;2022-11-24T03:49:00;51.53;;;19.23;;
70707;SDS011;58277;47.316;18.908;2022-11-24T03:51:23;52.78;;;18.15;;
70707;SDS011;58277;47.316;18.908;2022-11-24T03:53:46;56.05;;;19.05;;
70707;SDS011;58277;47.316;18.908;2022-11-24T03:56:08;52.75;;;18.20;;
70707;SDS011;58277;47.316;18.908;2022-11-24T03:58:31;51.00;;;17.52;;
70707;SDS011;58277;47.316;18.908;2022-11-24T04:00:54;49.23;;;16.70;;
70707;SDS011;58277;47.316;18.908;2022-11-24T04:03:17;50.97;;;17.10;;
70707;SDS011;58277;47.316;18.908;2022-11-24T04:05:40;44.67;;;16.73;;
70707;SDS011;58277;47.316;18.908;2022-11-24T04:08:03;55.75;;;18.63;;
70707;SDS011;58277;47.316;18.908;2022-11-24T04:10:26;54.97;;;18.10;;
70707;SDS011;58277;47.316;18.908;2022-11-24T04:12:49;54.17;;;18.33;;
70707;SDS011;58277;47.316;18.908;2022-11-24T04:15:12;54.67;;;18.67;;
70707;SDS011;58277;47.316;18.908;2022-11-24T04:17:41;59.25;;;18.88;;
70707;SDS011;58277;47.316;18.908;2022-11-24T04:20:04;53.97;;;17.83;;
70707;SDS011;58277;47.316;18.908;2022-11-24T04:22:27;54.88;;;18.42;;
70707;SDS011;58277;47.316;18.908;2022-11-24T04:24:50;52.67;;;17.60;;
70707;SDS011;58277;47.316;18.908;2022-11-24T04:27:13;56.55;;;18.83;;
70707;SDS011;58277;47.316;18.908;2022-11-24T04:29:38;55.50;;;18.55;;
70707;SDS011;58277;47.316;18.908;2022-11-24T04:32:00;53.92;;;17.50;;
70707;SDS011;58277;47.316;18.908;2022-11-24T04:34:23;59.65;;;19.27;;
70707;SDS011;58277;47.316;18.908;2022-11-24T04:36:45;62.50;;;19.90;;
70707;SDS011;58277;47.316;18.908;2022-11-24T04:39:08;56.45;;;19.33;;
70707;SDS011;58277;47.316;18.908;2022-11-24T04:41:47;57.25;;;19.60;;
70707;SDS011;58277;47.316;18.908;2022-11-24T04:44:09;58.40;;;18.98;;
70707;SDS011;58277;47.316;18.908;2022-11-24T04:46:32;58.83;;;19.30;;
70707;SDS011;58277;47.316;18.908;2022-11-24T04:48:55;59.20;;;19.60;;
70707;SDS011;58277;47.316;18.908;2022-11-24T04:51:17;58.85;;;19.85;;
70707;SDS011;58277;47.316;18.908;2022-11-24T04:53:40;55.45;;;18.10;;
70707;SDS011;58277;47.316;18.908;2022-11-24T04:56:03;54.08;;;17.70;;
70707;SDS011;58277;47.316;18.908;2022-11-24T04:58:27;56.50;;;19.05;;
70707;SDS011;58277;47.316;18.908;2022-11-24T05:00:50;59.83;;;19.57;;
70707;SDS011;58277;47.316;18.908;2022-11-24T05:03:12;55.80;;;18.95;;
70707;SDS011;58277;47.316;18.908;2022-11-24T05:05:35;55.80;;;18.17;;
70707;SDS011;58277;47.316;18.908;2022-11-24T05:07:58;59.92;;;20.33;;
70707;SDS011;58277;47.316;18.908;2022-11-24T05:10:21;55.85;;;18.88;;
70707;SDS011;58277;47.316;18.908;2022-11-24T05:12:56;58.67;;;19.47;;
70707;SDS011;58277;47.316;18.908;2022-11-24T05:15:20;57.80;;;18.30;;
70707;SDS011;58277;47.316;18.908;2022-11-24T05:17:43;53.35;;;18.65;;
70707;SDS011;58277;47.316;18.908;2022-11-24T05:20:06;56.42;;;18.35;;
70707;SDS011;58277;47.316;18.908;2022-11-24T05:22:29;61.42;;;19.40;;
70707;SDS011;58277;47.316;18.908;2022-11-24T05:24:52;56.37;;;18.50;;
70707;SDS011;58277;47.316;18.908;2022-11-24T05:27:15;55.10;;;18.65;;
70707;SDS011;58277;47.316;18.908;2022-11-24T05:29:38;59.03;;;18.90;;
70707;SDS011;58277;47.316;18.908;2022-11-24T05:32:01;57.72;;;17.88;;
70707;SDS011;58277;47.316;18.908;2022-11-24T05:34:23;59.85;;;18.98;;
70707;SDS011;58277;47.316;18.908;2022-11-24T05:36:46;52.97;;;18.40;;
70707;SDS011;58277;47.316;18.908;2022-11-24T05:39:15;50.83;;;18.38;;
70707;SDS011;58277;47.316;18.908;2022-11-24T05:41:38;54.60;;;18.60;;
70707;SDS011;58277;47.316;18.908;2022-11-24T05:44:00;52.92;;;18.10;;
70707;SDS011;58277;47.316;18.908;2022-11-24T05:46:23;54.67;;;18.80;;
70707;SDS011;58277;47.316;18.908;2022-11-24T05:48:46;52.33;;;18.20;;
70707;SDS011;58277;47.316;18.908;2022-11-24T05:51:08;54.90;;;18.10;;
70707;SDS011;58277;47.316;18.908;2022-11-24T05:53:31;53.30;;;17.25;;
70707;SDS011;58277;47.316;18.908;2022-11-24T05:55:54;53.15;;;17.48;;
70707;SDS011;58277;47.316;18.908;2022-11-24T05:58:16;55.60;;;18.38;;
70707;SDS011;58277;47.316;18.908;2022-11-24T06:00:39;49.77;;;16.47;;
70707;SDS011;58277;47.316;18.908;2022-11-24T06:03:02;49.25;;;17.35;;
70707;SDS011;58277;47.316;18.908;2022-11-24T06:05:25;53.08;;;17.13;;
70707;SDS011;58277;47.316;18.908;2022-11-24T06:07:49;50.60;;;17.23;;
70707;SDS011;58277;47.316;18.908;2022-11-24T06:10:14;49.17;;;16.15;;
70707;SDS011;58277;47.316;18.908;2022-11-24T06:12:37;46.97;;;15.23;;
70707;SDS011;58277;47.316;18.908;2022-11-24T06:15:00;48.17;;;16.45;;
70707;SDS011;58277;47.316;18.908;2022-11-24T06:17:24;54.47;;;16.98;;
70707;SDS011;58277;47.316;18.908;2022-11-24T06:19:47;47.83;;;16.67;;
70707;SDS011;58277;47.316;18.908;2022-11-24T06:22:11;46.40;;;16.45;;
70707;SDS011;58277;47.316;18.908;2022-11-24T06:24:34;53.17;;;15.50;;
70707;SDS011;58277;47.316;18.908;2022-11-24T06:26:57;47.28;;;15.90;;
70707;SDS011;58277;47.316;18.908;2022-11-24T06:29:20;45.65;;;15.75;;
70707;SDS011;58277;47.316;18.908;2022-11-24T06:31:43;48.03;;;15.00;;
70707;SDS011;58277;47.316;18.908;2022-11-24T06:34:06;46.40;;;15.43;;
70707;SDS011;58277;47.316;18.908;2022-11-24T06:36:32;49.20;;;15.93;;
70707;SDS011;58277;47.316;18.908;2022-11-24T06:38:55;43.40;;;15.02;;
70707;SDS011;58277;47.316;18.908;2022-11-24T06:41:18;47.88;;;15.63;;
70707;SDS011;58277;47.316;18.908;2022-11-24T06:43:41;47.60;;;16.27;;
70707;SDS011;58277;47.316;18.908;2022-11-24T06:46:05;48.92;;;15.85;;
70707;SDS011;58277;47.316;18.908;2022-11-24T06:48:29;53.10;;;15.60;;
70707;SDS011;58277;47.316;18.908;2022-11-24T06:50:52;48.72;;;16.45;;
70707;SDS011;58277;47.316;18.908;2022-11-24T06:53:16;48.00;;;16.50;;
70707;SDS011;58277;47.316;18.908;2022-11-24T06:55:39;46.85;;;16.35;;
70707;SDS011;58277;47.316;18.908;2022-11-24T06:58:05;58.97;;;20.02;;
70707;SDS011;58277;47.316;18.908;2022-11-24T07:00:29;44.97;;;15.67;;
70707;SDS011;58277;47.316;18.908;2022-11-24T07:02:53;53.17;;;17.58;;
70707;SDS011;58277;47.316;18.908;2022-11-24T07:05:15;51.85;;;17.77;;
70707;SDS011;58277;47.316;18.908;2022-11-24T07:07:38;50.20;;;16.92;;
70707;SDS011;58277;47.316;18.908;2022-11-24T07:10:01;55.10;;;17.30;;
70707;SDS011;58277;47.316;18.908;2022-11-24T07:12:24;52.73;;;17.10;;
70707;SDS011;58277;47.316;18.908;2022-11-24T07:14:47;45.55;;;16.15;;
70707;SDS011;58277;47.316;18.908;2022-11-24T07:17:10;48.67;;;16.73;;
70707;SDS011;58277;47.316;18.908;2022-11-24T07:19:33;47.05;;;16.65;;
70707;SDS011;58277;47.316;18.908;2022-11-24T07:21:56;45.55;;;16.05;;
70707;SDS011;58277;47.316;18.908;2022-11-24T07:24:19;47.70;;;17.47;;
70707;SDS011;58277;47.316;18.908;2022-11-24T07:26:42;46.45;;;16.33;;
70707;SDS011;58277;47.316;18.908;2022-11-24T07:29:05;47.63;;;16.90;;
70707;SDS011;58277;47.316;18.908;2022-11-24T07:31:27;48.13;;;16.48;;
70707;SDS011;58277;47.316;18.908;2022-11-24T07:33:51;50.05;;;15.95;;
70707;SDS011;58277;47.316;18.908;2022-11-24T07:36:14;47.23;;;16.40;;
70707;SDS011;58277;47.316;18.908;2022-11-24T07:38:37;51.65;;;17.33;;
70707;SDS011;58277;47.316;18.908;2022-11-24T07:41:01;47.42;;;15.95;;
70707;SDS011;58277;47.316;18.908;2022-11-24T07:43:25;45.72;;;16.65;;
70707;SDS011;58277;47.316;18.908;2022-11-24T07:45:51;49.05;;;16.98;;
70707;SDS011;58277;47.316;18.908;2022-11-24T07:48:14;48.43;;;16.90;;
70707;SDS011;58277;47.316;18.908;2022-11-24T07:50:37;50.20;;;16.58;;
70707;SDS011;58277;47.316;18.908;2022-11-24T07:53:12;54.78;;;17.73;;
70707;SDS011;58277;47.316;18.908;2022-11-24T07:55:35;53.78;;;18.20;;
70707;SDS011;58277;47.316;18.908;2022-11-24T07:57:58;50.08;;;16.75;;
70707;SDS011;58277;47.316;18.908;2022-11-24T08:00:22;55.17;;;17.90;;
70707;SDS011;58277;47.316;18.908;2022-11-24T08:02:45;59.88;;;18.80;;
70707;SDS011;58277;47.316;18.908;2022-11-24T08:05:08;54.65;;;17.98;;
70707;SDS011;58277;47.316;18.908;2022-11-24T08:07:31;59.05;;;19.92;;
70707;SDS011;58277;47.316;18.908;2022-11-24T08:09:54;58.45;;;18.92;;
70707;SDS011;58277;47.316;18.908;2022-11-24T08:12:17;59.27;;;19.23;;
70707;SDS011;58277;47.316;18.908;2022-11-24T08:14:43;58.38;;;18.77;;
70707;SDS011;58277;47.316;18.908;2022-11-24T08:17:05;57.47;;;19.25;;
70707;SDS011;58277;47.316;18.908;2022-11-24T08:19:29;62.20;;;19.98;;
70707;SDS011;58277;47.316;18.908;2022-11-24T08:21:53;55.08;;;19.42;;
70707;SDS011;58277;47.316;18.908;2022-11-24T08:24:16;59.30;;;20.37;;
70707;SDS011;58277;47.316;18.908;2022-11-24T08:26:39;58.92;;;19.88;;
70707;SDS011;58277;47.316;18.908;2022-11-24T08:29:11;61.60;;;19.05;;
70707;SDS011;58277;47.316;18.908;2022-11-24T08:31:34;60.38;;;19.52;;
70707;SDS011;58277;47.316;18.908;2022-11-24T08:34:00;54.88;;;18.33;;
70707;SDS011;58277;47.316;18.908;2022-11-24T08:36:24;57.53;;;18.80;;
70707;SDS011;58277;47.316;18.908;2022-11-24T08:38:47;57.17;;;19.17;;
70707;SDS011;58277;47.316;18.908;2022-11-24T08:41:11;58.83;;;18.48;;
70707;SDS011;58277;47.316;18.908;2022-11-24T08:43:37;57.03;;;18.25;;
70707;SDS011;58277;47.316;18.908;2022-11-24T08:46:00;62.28;;;19.55;;
70707;SDS011;58277;47.316;18.908;2022-11-24T08:48:25;57.50;;;18.67;;
70707;SDS011;58277;47.316;18.908;2022-11-24T08:50:47;57.35;;;19.15;;
70707;SDS011;58277;47.316;18.908;2022-11-24T08:53:11;52.65;;;16.83;;
70707;SDS011;58277;47.316;18.908;2022-11-24T08:55:33;55.90;;;17.95;;
70707;SDS011;58277;47.316;18.908;2022-11-24T08:57:56;54.58;;;18.63;;
70707;SDS011;58277;47.316;18.908;2022-11-24T09:00:19;53.37;;;18.13;;
70707;SDS011;58277;47.316;18.908;2022-11-24T09:02:56;50.80;;;16.92;;
70707;SDS011;58277;47.316;18.908;2022-11-24T09:05:19;50.70;;;18.25;;
70707;SDS011;58277;47.316;18.908;2022-11-24T09:08:03;53.92;;;17.13;;
70707;SDS011;58277;47.316;18.908;2022-11-24T09:10:26;58.90;;;19.02;;
70707;SDS011;58277;47.316;18.908;2022-11-24T09:12:48;55.57;;;18.70;;
70707;SDS011;58277;47.316;18.908;2022-11-24T09:15:12;47.42;;;17.55;;
70707;SDS011;58277;47.316;18.908;2022-11-24T09:17:37;54.95;;;17.90;;
70707;SDS011;58277;47.316;18.908;2022-11-24T09:20:00;53.38;;;17.25;;
70707;SDS011;58277;47.316;18.908;2022-11-24T09:22:23;52.67;;;17.38;;
70707;SDS011;58277;47.316;18.908;2022-11-24T09:24:46;49.60;;;17.00;;
70707;SDS011;58277;47.316;18.908;2022-11-24T09:27:09;47.38;;;16.65;;
70707;SDS011;58277;47.316;18.908;2022-11-24T09:29:31;50.50;;;17.63;;
70707;SDS011;58277;47.316;18.908;2022-11-24T09:31:55;49.83;;;16.80;;
70707;SDS011;58277;47.316;18.908;2022-11-24T09:34:24;54.35;;;17.50;;
70707;SDS011;58277;47.316;18.908;2022-11-24T09:36:47;49.80;;;17.33;;
70707;SDS011;58277;47.316;18.908;2022-11-24T09:39:13;46.97;;;15.68;;
70707;SDS011;58277;47.316;18.908;2022-11-24T09:47:13;47.58;;;15.30;;
70707;SDS011;58277;47.316;18.908;2022-11-24T09:52:13;50.80;;;17.95;;
70707;SDS011;58277;47.316;18.908;2022-11-24T09:54:43;46.53;;;16.73;;
70707;SDS011;58277;47.316;18.908;2022-11-24T09:57:11;48.75;;;15.52;;
70707;SDS011;58277;47.316;18.908;2022-11-24T09:59:35;45.17;;;15.82;;
70707;SDS011;58277;47.316;18.908;2022-11-24T10:01:59;43.30;;;15.20;;
70707;SDS011;58277;47.316;18.908;2022-11-24T10:04:25;43.63;;;15.15;;
70707;SDS011;58277;47.316;18.908;2022-11-24T10:07:06;43.97;;;15.57;;
70707;SDS011;58277;47.316;18.908;2022-11-24T10:15:46;43.17;;;14.90;;
70707;SDS011;58277;47.316;18.908;2022-11-24T10:26:17;36.05;;;14.07;;
70707;SDS011;58277;47.316;18.908;2022-11-24T10:28:46;39.40;;;14.33;;
70707;SDS011;58277;47.316;18.908;2022-11-24T10:31:16;44.30;;;15.35;;
70707;SDS011;58277;47.316;18.908;2022-11-24T10:33:50;37.45;;;14.38;;
70707;SDS011;58277;47.316;18.908;2022-11-24T10:36:18;41.47;;;15.45;;
70707;SDS011;58277;47.316;18.908;2022-11-24T10:38:52;41.53;;;14.68;;
70707;SDS011;58277;47.316;18.908;2022-11-24T10:41:41;42.57;;;16.00;;
70707;SDS011;58277;47.316;18.908;2022-11-24T10:44:12;38.28;;;14.70;;
70707;SDS011;58277;47.316;18.908;2022-11-24T10:46:36;37.47;;;14.88;;
70707;SDS011;58277;47.316;18.908;2022-11-24T10:49:02;35.78;;;14.52;;
70707;SDS011;58277;47.316;18.908;2022-11-24T10:53:52;36.23;;;14.93;;
70707;SDS011;58277;47.316;18.908;2022-11-24T10:56:22;37.13;;;15.02;;
70707;SDS011;58277;47.316;18.908;2022-11-24T10:58:45;41.33;;;15.88;;
70707;SDS011;58277;47.316;18.908;2022-11-24T11:03:35;36.83;;;14.55;;
70707;SDS011;58277;47.316;18.908;2022-11-24T11:06:12;35.87;;;14.00;;
70707;SDS011;58277;47.316;18.908;2022-11-24T11:08:41;34.05;;;13.88;;
70707;SDS011;58277;47.316;18.908;2022-11-24T11:11:16;32.60;;;13.90;;
70707;SDS011;58277;47.316;18.908;2022-11-24T11:13:57;36.08;;;15.15;;
70707;SDS011;58277;47.316;18.908;2022-11-24T11:16:36;33.05;;;13.73;;
70707;SDS011;58277;47.316;18.908;2022-11-24T11:19:01;28.83;;;12.60;;
70707;SDS011;58277;47.316;18.908;2022-11-24T11:21:47;31.33;;;12.38;;
70707;SDS011;58277;47.316;18.908;2022-11-24T11:24:13;28.65;;;12.38;;
70707;SDS011;58277;47.316;18.908;2022-11-24T11:26:39;27.23;;;11.82;;
70707;SDS011;58277;47.316;18.908;2022-11-24T11:32:00;27.08;;;12.52;;
70707;SDS011;58277;47.316;18.908;2022-11-24T11:34:57;26.48;;;11.70;;
70707;SDS011;58277;47.316;18.908;2022-11-24T11:37:25;24.20;;;12.10;;
70707;SDS011;58277;47.316;18.908;2022-11-24T11:39:51;26.55;;;11.43;;
70707;SDS011;58277;47.316;18.908;2022-11-24T11:45:20;23.23;;;11.30;;
70707;SDS011;58277;47.316;18.908;2022-11-24T11:56:43;22.00;;;10.43;;
70707;SDS011;58277;47.316;18.908;2022-11-24T12:02:14;18.83;;;9.50;;
70707;SDS011;58277;47.316;18.908;2022-11-24T12:05:01;19.88;;;9.45;;
70707;SDS011;58277;47.316;18.908;2022-11-24T12:07:37;20.00;;;9.48;;
70707;SDS011;58277;47.316;18.908;2022-11-24T12:10:15;22.83;;;9.57;;
70707;SDS011;58277;47.316;18.908;2022-11-24T12:12:59;17.73;;;8.27;;
70707;SDS011;58277;47.316;18.908;2022-11-24T12:18:04;20.05;;;8.43;;
70707;SDS011;58277;47.316;18.908;2022-11-24T12:21:16;18.38;;;8.10;;
70707;SDS011;58277;47.316;18.908;2022-11-24T12:26:47;19.27;;;8.18;;
70707;SDS011;58277;47.316;18.908;2022-11-24T12:35:27;19.70;;;9.35;;
70707;SDS011;58277;47.316;18.908;2022-11-24T12:44:02;18.95;;;9.07;;
70707;SDS011;58277;47.316;18.908;2022-11-24T12:46:48;17.75;;;7.93;;
70707;SDS011;58277;47.316;18.908;2022-11-24T12:52:09;17.52;;;8.52;;
70707;SDS011;58277;47.316;18.908;2022-11-24T12:54:42;14.27;;;7.43;;
70707;SDS011;58277;47.316;18.908;2022-11-24T12:57:17;16.48;;;8.30;;
70707;SDS011;58277;47.316;18.908;2022-11-24T13:02:42;16.52;;;7.63;;
70707;SDS011;58277;47.316;18.908;2022-11-24T13:05:31;18.77;;;7.82;;
70707;SDS011;58277;47.316;18.908;2022-11-24T13:08:16;15.63;;;7.20;;
70707;SDS011;58277;47.316;18.908;2022-11-24T13:10:40;17.67;;;7.38;;
70707;SDS011;58277;47.316;18.908;2022-11-24T13:13:21;17.80;;;8.52;;
70707;SDS011;58277;47.316;18.908;2022-11-24T13:18:52;16.65;;;7.47;;
70707;SDS011;58277;47.316;18.908;2022-11-24T13:29:35;13.30;;;6.43;;
70707;SDS011;58277;47.316;18.908;2022-11-24T13:37:16;16.75;;;7.78;;
70707;SDS011;58277;47.316;18.908;2022-11-24T13:42:21;16.33;;;7.93;;
70707;SDS011;58277;47.316;18.908;2022-11-24T13:45:08;15.95;;;6.75;;
70707;SDS011;58277;47.316;18.908;2022-11-24T13:48:00;15.53;;;6.63;;
70707;SDS011;58277;47.316;18.908;2022-11-24T13:50:33;16.05;;;7.10;;
70707;SDS011;58277;47.316;18.908;2022-11-24T13:58:22;16.85;;;7.22;;
70707;SDS011;58277;47.316;18.908;2022-11-24T14:03:44;15.82;;;6.82;;
70707;SDS011;58277;47.316;18.908;2022-11-24T14:06:38;13.82;;;6.85;;
70707;SDS011;58277;47.316;18.908;2022-11-24T14:09:18;16.77;;;7.85;;
70707;SDS011;58277;47.316;18.908;2022-11-24T14:14:21;15.03;;;7.03;;
70707;SDS011;58277;47.316;18.908;2022-11-24T14:16:45;16.75;;;6.88;;
70707;SDS011;58277;47.316;18.908;2022-11-24T14:19:08;14.45;;;6.70;;
70707;SDS011;58277;47.316;18.908;2022-11-24T14:21:33;13.70;;;6.53;;
70707;SDS011;58277;47.316;18.908;2022-11-24T14:24:22;15.25;;;7.00;;
70707;SDS011;58277;47.316;18.908;2022-11-24T14:26:46;14.13;;;6.40;;
70707;SDS011;58277;47.316;18.908;2022-11-24T14:29:16;16.48;;;7.00;;
70707;SDS011;58277;47.316;18.908;2022-11-24T14:31:50;15.75;;;7.30;;
70707;SDS011;58277;47.316;18.908;2022-11-24T14:34:15;15.98;;;7.35;;
70707;SDS011;58277;47.316;18.908;2022-11-24T14:36:42;19.08;;;9.90;;
70707;SDS011;58277;47.316;18.908;2022-11-24T14:39:05;27.57;;;14.30;;
70707;SDS011;58277;47.316;18.908;2022-11-24T14:41:32;30.95;;;15.32;;
70707;SDS011;58277;47.316;18.908;2022-11-24T14:46:29;21.67;;;9.88;;
70707;SDS011;58277;47.316;18.908;2022-11-24T14:48:53;18.30;;;8.40;;
70707;SDS011;58277;47.316;18.908;2022-11-24T14:51:19;20.03;;;8.53;;
70707;SDS011;58277;47.316;18.908;2022-11-24T14:53:47;18.98;;;8.73;;
70707;SDS011;58277;47.316;18.908;2022-11-24T14:58:47;18.70;;;8.10;;
70707;SDS011;58277;47.316;18.908;2022-11-24T15:01:21;19.80;;;8.07;;
70707;SDS011;58277;47.316;18.908;2022-11-24T15:07:12;17.92;;;7.40;;
70707;SDS011;58277;47.316;18.908;2022-11-24T15:12:11;18.40;;;7.00;;
70707;SDS011;58277;47.316;18.908;2022-11-24T15:14:50;18.58;;;7.60;;
70707;SDS011;58277;47.316;18.908;2022-11-24T15:17:19;18.57;;;7.67;;
70707;SDS011;58277;47.316;18.908;2022-11-24T15:19:45;16.65;;;7.70;;
70707;SDS011;58277;47.316;18.908;2022-11-24T15:22:38;17.15;;;6.85;;
70707;SDS011;58277;47.316;18.908;2022-11-24T15:25:19;14.98;;;6.68;;
70707;SDS011;58277;47.316;18.908;2022-11-24T15:27:53;16.50;;;6.32;;
70707;SDS011;58277;47.316;18.908;2022-11-24T15:30:16;16.07;;;6.23;;
70707;SDS011;58277;47.316;18.908;2022-11-24T15:32:47;17.38;;;6.90;;
70707;SDS011;58277;47.316;18.908;2022-11-24T15:35:10;15.23;;;6.43;;
70707;SDS011;58277;47.316;18.908;2022-11-24T15:37:33;17.08;;;6.68;;
70707;SDS011;58277;47.316;18.908;2022-11-24T15:39:56;17.98;;;7.40;;
70707;SDS011;58277;47.316;18.908;2022-11-24T15:42:18;21.40;;;8.70;;
70707;SDS011;58277;47.316;18.908;2022-11-24T15:44:41;20.85;;;8.75;;
70707;SDS011;58277;47.316;18.908;2022-11-24T15:47:03;20.77;;;8.85;;
70707;SDS011;58277;47.316;18.908;2022-11-24T15:49:26;17.65;;;7.43;;
70707;SDS011;58277;47.316;18.908;2022-11-24T15:51:49;20.15;;;7.65;;
70707;SDS011;58277;47.316;18.908;2022-11-24T15:54:15;17.33;;;7.23;;
70707;SDS011;58277;47.316;18.908;2022-11-24T15:56:38;17.63;;;7.10;;
70707;SDS011;58277;47.316;18.908;2022-11-24T15:59:03;15.50;;;6.90;;
70707;SDS011;58277;47.316;18.908;2022-11-24T16:01:27;17.90;;;7.90;;
70707;SDS011;58277;47.316;18.908;2022-11-24T16:03:52;19.35;;;7.70;;